sensor_id;sensor_type;location;lat;lon;timestamp;P1;durP1;ratioP1;P2;durP2;ratioP2
17424;SDS011;8830;50.978;5.058;2023-04-24T00:01:23;11.23;;;7.73;;
17424;SDS011;8830;50.978;5.058;2023-04-24T00:03:50;9.90;;;8.90;;
17424;SDS011;8830;50.978;5.058;2023-04-24T00:06:18;10.60;;;9.50;;
17424;SDS011;8830;50.978;5.058;2023-04-24T00:08:45;11.60;;;8.93;;
17424;SDS011;8830;50.978;5.058;2023-04-24T00:11:12;13.07;;;8.93;;
17424;SDS011;8830;50.978;5.058;2023-04-24T00:13:40;14.47;;;9.23;;
17424;SDS011;8830;50.978;5.058;2023-04-24T00:16:07;13.47;;;9.07;;
17424;SDS011;8830;50.978;5.058;2023-04-24T00:18:34;14.03;;;9.93;;
17424;SDS011;8830;50.978;5.058;2023-04-24T00:21:02;12.00;;;8.47;;
17424;SDS011;8830;50.978;5.058;2023-04-24T00:23:29;18.47;;;10.17;;
17424;SDS011;8830;50.978;5.058;2023-04-24T00:25:56;11.63;;;9.70;;
17424;SDS011;8830;50.978;5.058;2023-04-24T00:28:24;11.37;;;9.47;;
17424;SDS011;8830;50.978;5.058;2023-04-24T00:30:53;11.57;;;9.60;;
17424;SDS011;8830;50.978;5.058;2023-04-24T00:33:20;13.10;;;9.33;;
17424;SDS011;8830;50.978;5.058;2023-04-24T00:35:47;15.77;;;11.10;;
17424;SDS011;8830;50.978;5.058;2023-04-24T00:38:14;15.70;;;10.53;;
17424;SDS011;8830;50.978;5.058;2023-04-24T00:40:41;13.83;;;10.33;;
17424;SDS011;8830;50.978;5.058;2023-04-24T00:43:08;11.60;;;9.90;;
17424;SDS011;8830;50.978;5.058;2023-04-24T00:45:35;16.20;;;10.57;;
17424;SDS011;8830;50.978;5.058;2023-04-24T00:48:04;15.63;;;10.37;;
17424;SDS011;8830;50.978;5.058;2023-04-24T00:50:32;17.37;;;10.70;;
17424;SDS011;8830;50.978;5.058;2023-04-24T00:52:59;11.27;;;10.10;;
17424;SDS011;8830;50.978;5.058;2023-04-24T00:55:26;12.30;;;10.23;;
17424;SDS011;8830;50.978;5.058;2023-04-24T00:57:54;13.67;;;10.57;;
17424;SDS011;8830;50.978;5.058;2023-04-24T01:00:21;15.33;;;10.07;;
17424;SDS011;8830;50.978;5.058;2023-04-24T01:02:48;14.10;;;9.80;;
17424;SDS011;8830;50.978;5.058;2023-04-24T01:05:18;11.33;;;9.77;;
17424;SDS011;8830;50.978;5.058;2023-04-24T01:07:45;12.77;;;9.87;;
17424;SDS011;8830;50.978;5.058;2023-04-24T01:10:14;15.43;;;10.27;;
17424;SDS011;8830;50.978;5.058;2023-04-24T01:12:42;13.43;;;10.20;;
17424;SDS011;8830;50.978;5.058;2023-04-24T01:15:10;16.90;;;9.77;;
17424;SDS011;8830;50.978;5.058;2023-04-24T01:17:37;16.33;;;9.70;;
17424;SDS011;8830;50.978;5.058;2023-04-24T01:20:05;15.53;;;10.03;;
17424;SDS011;8830;50.978;5.058;2023-04-24T01:22:35;15.63;;;10.07;;
17424;SDS011;8830;50.978;5.058;2023-04-24T01:25:02;16.60;;;10.70;;
17424;SDS011;8830;50.978;5.058;2023-04-24T01:27:30;11.83;;;9.63;;
17424;SDS011;8830;50.978;5.058;2023-04-24T01:29:57;18.50;;;9.73;;
17424;SDS011;8830;50.978;5.058;2023-04-24T01:32:24;10.30;;;9.20;;
17424;SDS011;8830;50.978;5.058;2023-04-24T01:34:52;12.30;;;9.53;;
17424;SDS011;8830;50.978;5.058;2023-04-24T01:37:20;16.40;;;10.23;;
17424;SDS011;8830;50.978;5.058;2023-04-24T01:39:49;16.57;;;9.50;;
17424;SDS011;8830;50.978;5.058;2023-04-24T01:42:16;17.13;;;9.73;;
17424;SDS011;8830;50.978;5.058;2023-04-24T01:44:43;13.17;;;9.57;;
17424;SDS011;8830;50.978;5.058;2023-04-24T01:47:11;12.80;;;9.83;;
17424;SDS011;8830;50.978;5.058;2023-04-24T01:49:38;12.67;;;9.60;;
17424;SDS011;8830;50.978;5.058;2023-04-24T01:52:05;15.67;;;10.17;;
17424;SDS011;8830;50.978;5.058;2023-04-24T01:54:32;20.87;;;9.93;;
17424;SDS011;8830;50.978;5.058;2023-04-24T01:57:01;11.77;;;8.83;;
17424;SDS011;8830;50.978;5.058;2023-04-24T01:59:28;13.70;;;9.17;;
17424;SDS011;8830;50.978;5.058;2023-04-24T02:01:56;11.93;;;9.03;;
17424;SDS011;8830;50.978;5.058;2023-04-24T02:04:23;10.27;;;8.87;;
17424;SDS011;8830;50.978;5.058;2023-04-24T02:06:51;12.40;;;9.40;;
17424;SDS011;8830;50.978;5.058;2023-04-24T02:09:18;9.70;;;8.53;;
17424;SDS011;8830;50.978;5.058;2023-04-24T02:11:45;10.57;;;8.07;;
17424;SDS011;8830;50.978;5.058;2023-04-24T02:14:14;16.70;;;8.63;;
17424;SDS011;8830;50.978;5.058;2023-04-24T02:16:41;10.87;;;7.67;;
17424;SDS011;8830;50.978;5.058;2023-04-24T02:19:09;8.47;;;7.50;;
17424;SDS011;8830;50.978;5.058;2023-04-24T02:21:36;9.53;;;7.63;;
17424;SDS011;8830;50.978;5.058;2023-04-24T02:24:03;8.30;;;7.60;;
17424;SDS011;8830;50.978;5.058;2023-04-24T02:26:30;9.07;;;8.20;;
17424;SDS011;8830;50.978;5.058;2023-04-24T02:28:58;9.37;;;8.47;;
17424;SDS011;8830;50.978;5.058;2023-04-24T02:31:27;8.30;;;7.43;;
17424;SDS011;8830;50.978;5.058;2023-04-24T02:33:54;10.67;;;7.70;;
17424;SDS011;8830;50.978;5.058;2023-04-24T02:36:21;9.40;;;7.30;;
17424;SDS011;8830;50.978;5.058;2023-04-24T02:38:48;7.87;;;7.07;;
17424;SDS011;8830;50.978;5.058;2023-04-24T02:41:15;9.03;;;7.47;;
17424;SDS011;8830;50.978;5.058;2023-04-24T02:43:43;9.57;;;7.13;;
17424;SDS011;8830;50.978;5.058;2023-04-24T02:46:10;9.20;;;8.20;;
17424;SDS011;8830;50.978;5.058;2023-04-24T02:48:40;8.00;;;7.30;;
17424;SDS011;8830;50.978;5.058;2023-04-24T02:51:07;8.53;;;7.63;;
17424;SDS011;8830;50.978;5.058;2023-04-24T02:53:34;8.83;;;7.93;;
17424;SDS011;8830;50.978;5.058;2023-04-24T02:56:01;11.70;;;8.33;;
17424;SDS011;8830;50.978;5.058;2023-04-24T02:58:28;9.37;;;8.10;;
17424;SDS011;8830;50.978;5.058;2023-04-24T03:00:56;9.57;;;8.17;;
17424;SDS011;8830;50.978;5.058;2023-04-24T03:03:26;9.60;;;8.67;;
17424;SDS011;8830;50.978;5.058;2023-04-24T03:05:55;9.23;;;8.30;;
17424;SDS011;8830;50.978;5.058;2023-04-24T03:08:22;9.63;;;8.63;;
17424;SDS011;8830;50.978;5.058;2023-04-24T03:10:49;9.60;;;8.77;;
17424;SDS011;8830;50.978;5.058;2023-04-24T03:13:17;10.73;;;9.73;;
17424;SDS011;8830;50.978;5.058;2023-04-24T03:15:44;14.70;;;10.33;;
17424;SDS011;8830;50.978;5.058;2023-04-24T03:18:12;13.17;;;10.27;;
17424;SDS011;8830;50.978;5.058;2023-04-24T03:20:40;10.93;;;9.90;;
17424;SDS011;8830;50.978;5.058;2023-04-24T03:23:10;11.17;;;10.03;;
17424;SDS011;8830;50.978;5.058;2023-04-24T03:25:37;11.00;;;9.90;;
17424;SDS011;8830;50.978;5.058;2023-04-24T03:28:04;11.37;;;10.37;;
17424;SDS011;8830;50.978;5.058;2023-04-24T03:30:31;11.27;;;10.10;;
17424;SDS011;8830;50.978;5.058;2023-04-24T03:32:58;15.10;;;10.87;;
17424;SDS011;8830;50.978;5.058;2023-04-24T03:35:25;11.50;;;10.43;;
17424;SDS011;8830;50.978;5.058;2023-04-24T03:37:53;11.13;;;10.03;;
17424;SDS011;8830;50.978;5.058;2023-04-24T03:40:24;10.33;;;9.37;;
17424;SDS011;8830;50.978;5.058;2023-04-24T03:42:51;9.83;;;9.00;;
17424;SDS011;8830;50.978;5.058;2023-04-24T03:45:18;10.20;;;9.17;;
17424;SDS011;8830;50.978;5.058;2023-04-24T03:47:45;10.37;;;8.53;;
17424;SDS011;8830;50.978;5.058;2023-04-24T03:50:12;9.90;;;9.00;;
17424;SDS011;8830;50.978;5.058;2023-04-24T03:52:40;9.13;;;8.23;;
17424;SDS011;8830;50.978;5.058;2023-04-24T03:55:07;9.87;;;8.90;;
17424;SDS011;8830;50.978;5.058;2023-04-24T03:57:39;9.30;;;8.50;;
17424;SDS011;8830;50.978;5.058;2023-04-24T04:00:06;11.67;;;8.73;;
17424;SDS011;8830;50.978;5.058;2023-04-24T04:02:35;8.60;;;7.70;;
17424;SDS011;8830;50.978;5.058;2023-04-24T04:05:02;10.17;;;8.63;;
17424;SDS011;8830;50.978;5.058;2023-04-24T04:07:29;8.90;;;8.03;;
17424;SDS011;8830;50.978;5.058;2023-04-24T04:09:56;8.90;;;8.23;;
17424;SDS011;8830;50.978;5.058;2023-04-24T04:12:23;8.67;;;7.87;;
17424;SDS011;8830;50.978;5.058;2023-04-24T04:14:51;8.57;;;7.53;;
17424;SDS011;8830;50.978;5.058;2023-04-24T04:17:18;9.20;;;7.73;;
17424;SDS011;8830;50.978;5.058;2023-04-24T04:19:46;11.13;;;8.10;;
17424;SDS011;8830;50.978;5.058;2023-04-24T04:22:14;8.77;;;7.97;;
17424;SDS011;8830;50.978;5.058;2023-04-24T04:24:41;8.13;;;7.33;;
17424;SDS011;8830;50.978;5.058;2023-04-24T04:27:08;8.23;;;6.50;;
17424;SDS011;8830;50.978;5.058;2023-04-24T04:29:36;7.50;;;6.80;;
17424;SDS011;8830;50.978;5.058;2023-04-24T04:32:06;7.73;;;5.87;;
17424;SDS011;8830;50.978;5.058;2023-04-24T04:34:33;6.13;;;5.53;;
17424;SDS011;8830;50.978;5.058;2023-04-24T04:37:02;6.37;;;5.83;;
17424;SDS011;8830;50.978;5.058;2023-04-24T04:39:31;6.37;;;5.83;;
17424;SDS011;8830;50.978;5.058;2023-04-24T04:41:58;6.07;;;4.90;;
17424;SDS011;8830;50.978;5.058;2023-04-24T04:44:25;5.13;;;4.60;;
17424;SDS011;8830;50.978;5.058;2023-04-24T04:46:54;4.40;;;4.00;;
17424;SDS011;8830;50.978;5.058;2023-04-24T04:49:23;4.47;;;4.07;;
17424;SDS011;8830;50.978;5.058;2023-04-24T04:51:53;4.30;;;3.90;;
17424;SDS011;8830;50.978;5.058;2023-04-24T04:54:20;4.47;;;4.07;;
17424;SDS011;8830;50.978;5.058;2023-04-24T04:56:49;4.10;;;3.47;;
17424;SDS011;8830;50.978;5.058;2023-04-24T04:59:16;4.30;;;3.90;;
17424;SDS011;8830;50.978;5.058;2023-04-24T05:01:45;4.10;;;3.70;;
17424;SDS011;8830;50.978;5.058;2023-04-24T05:04:12;6.17;;;4.13;;
17424;SDS011;8830;50.978;5.058;2023-04-24T05:06:41;4.37;;;4.00;;
17424;SDS011;8830;50.978;5.058;2023-04-24T05:09:10;4.27;;;3.83;;
17424;SDS011;8830;50.978;5.058;2023-04-24T05:11:38;4.00;;;3.13;;
17424;SDS011;8830;50.978;5.058;2023-04-24T05:14:11;3.60;;;3.30;;
17424;SDS011;8830;50.978;5.058;2023-04-24T05:16:40;3.00;;;2.77;;
17424;SDS011;8830;50.978;5.058;2023-04-24T05:19:08;2.60;;;2.40;;
17424;SDS011;8830;50.978;5.058;2023-04-24T05:21:36;2.63;;;2.20;;
17424;SDS011;8830;50.978;5.058;2023-04-24T05:24:08;3.53;;;2.30;;
17424;SDS011;8830;50.978;5.058;2023-04-24T05:26:40;2.83;;;2.53;;
17424;SDS011;8830;50.978;5.058;2023-04-24T05:29:08;3.23;;;2.67;;
17424;SDS011;8830;50.978;5.058;2023-04-24T05:31:38;3.53;;;3.23;;
17424;SDS011;8830;50.978;5.058;2023-04-24T05:34:05;4.27;;;3.57;;
17424;SDS011;8830;50.978;5.058;2023-04-24T05:38:59;5.20;;;4.60;;
17424;SDS011;8830;50.978;5.058;2023-04-24T05:41:28;5.77;;;5.27;;
17424;SDS011;8830;50.978;5.058;2023-04-24T05:44:04;6.67;;;6.07;;
17424;SDS011;8830;50.978;5.058;2023-04-24T05:46:35;7.47;;;5.70;;
17424;SDS011;8830;50.978;5.058;2023-04-24T05:49:09;6.67;;;6.17;;
17424;SDS011;8830;50.978;5.058;2023-04-24T05:51:43;7.90;;;6.67;;
17424;SDS011;8830;50.978;5.058;2023-04-24T05:54:21;7.63;;;6.97;;
17424;SDS011;8830;50.978;5.058;2023-04-24T05:56:51;8.63;;;7.13;;
17424;SDS011;8830;50.978;5.058;2023-04-24T05:59:19;8.47;;;7.67;;
17424;SDS011;8830;50.978;5.058;2023-04-24T06:01:48;11.03;;;7.77;;
17424;SDS011;8830;50.978;5.058;2023-04-24T06:04:15;11.83;;;7.60;;
17424;SDS011;8830;50.978;5.058;2023-04-24T06:06:44;7.87;;;7.27;;
17424;SDS011;8830;50.978;5.058;2023-04-24T06:09:11;10.67;;;7.10;;
17424;SDS011;8830;50.978;5.058;2023-04-24T06:11:39;7.40;;;6.70;;
17424;SDS011;8830;50.978;5.058;2023-04-24T06:14:08;9.47;;;6.60;;
17424;SDS011;8830;50.978;5.058;2023-04-24T06:16:35;8.20;;;6.73;;
17424;SDS011;8830;50.978;5.058;2023-04-24T06:19:09;7.23;;;6.53;;
17424;SDS011;8830;50.978;5.058;2023-04-24T06:21:38;11.90;;;6.50;;
17424;SDS011;8830;50.978;5.058;2023-04-24T06:24:05;8.47;;;6.57;;
17424;SDS011;8830;50.978;5.058;2023-04-24T06:26:32;7.37;;;6.67;;
17424;SDS011;8830;50.978;5.058;2023-04-24T06:28:59;6.67;;;6.07;;
17424;SDS011;8830;50.978;5.058;2023-04-24T06:31:28;8.23;;;7.43;;
17424;SDS011;8830;50.978;5.058;2023-04-24T06:33:55;7.53;;;6.83;;
17424;SDS011;8830;50.978;5.058;2023-04-24T06:36:22;9.73;;;6.73;;
17424;SDS011;8830;50.978;5.058;2023-04-24T06:38:49;9.30;;;8.37;;
17424;SDS011;8830;50.978;5.058;2023-04-24T06:41:16;11.27;;;7.47;;
17424;SDS011;8830;50.978;5.058;2023-04-24T06:43:44;11.17;;;8.27;;
17424;SDS011;8830;50.978;5.058;2023-04-24T06:46:12;13.93;;;9.30;;
17424;SDS011;8830;50.978;5.058;2023-04-24T06:48:40;8.97;;;8.00;;
17424;SDS011;8830;50.978;5.058;2023-04-24T06:51:08;9.47;;;8.23;;
17424;SDS011;8830;50.978;5.058;2023-04-24T06:53:35;20.97;;;9.73;;
17424;SDS011;8830;50.978;5.058;2023-04-24T06:56:02;10.87;;;8.77;;
17424;SDS011;8830;50.978;5.058;2023-04-24T06:58:30;10.60;;;8.50;;
17424;SDS011;8830;50.978;5.058;2023-04-24T07:00:57;11.03;;;8.53;;
17424;SDS011;8830;50.978;5.058;2023-04-24T07:03:25;8.47;;;7.57;;
17424;SDS011;8830;50.978;5.058;2023-04-24T07:05:53;9.73;;;8.33;;
17424;SDS011;8830;50.978;5.058;2023-04-24T07:08:21;11.60;;;8.07;;
17424;SDS011;8830;50.978;5.058;2023-04-24T07:10:48;9.53;;;8.60;;
17424;SDS011;8830;50.978;5.058;2023-04-24T07:13:16;9.70;;;8.70;;
17424;SDS011;8830;50.978;5.058;2023-04-24T07:15:44;9.13;;;7.93;;
17424;SDS011;8830;50.978;5.058;2023-04-24T07:18:11;11.17;;;8.30;;
17424;SDS011;8830;50.978;5.058;2023-04-24T07:20:40;8.37;;;7.67;;
17424;SDS011;8830;50.978;5.058;2023-04-24T07:23:09;10.87;;;9.00;;
17424;SDS011;8830;50.978;5.058;2023-04-24T07:25:36;10.83;;;8.63;;
17424;SDS011;8830;50.978;5.058;2023-04-24T07:28:04;11.33;;;8.80;;
17424;SDS011;8830;50.978;5.058;2023-04-24T07:30:31;12.70;;;9.50;;
17424;SDS011;8830;50.978;5.058;2023-04-24T07:32:59;9.40;;;8.60;;
17424;SDS011;8830;50.978;5.058;2023-04-24T07:35:26;9.90;;;8.87;;
17424;SDS011;8830;50.978;5.058;2023-04-24T07:37:53;10.63;;;9.60;;
17424;SDS011;8830;50.978;5.058;2023-04-24T07:40:22;12.77;;;10.17;;
17424;SDS011;8830;50.978;5.058;2023-04-24T07:42:50;16.70;;;9.87;;
17424;SDS011;8830;50.978;5.058;2023-04-24T07:45:19;13.73;;;9.93;;
17424;SDS011;8830;50.978;5.058;2023-04-24T07:47:48;12.53;;;9.20;;
17424;SDS011;8830;50.978;5.058;2023-04-24T07:50:18;9.33;;;8.43;;
17424;SDS011;8830;50.978;5.058;2023-04-24T07:52:47;10.57;;;8.40;;
17424;SDS011;8830;50.978;5.058;2023-04-24T07:55:14;14.10;;;8.00;;
17424;SDS011;8830;50.978;5.058;2023-04-24T07:57:42;8.93;;;7.77;;
17424;SDS011;8830;50.978;5.058;2023-04-24T08:00:10;9.07;;;7.90;;
17424;SDS011;8830;50.978;5.058;2023-04-24T08:02:38;9.37;;;7.60;;
17424;SDS011;8830;50.978;5.058;2023-04-24T08:05:06;9.93;;;7.67;;
17424;SDS011;8830;50.978;5.058;2023-04-24T08:07:33;10.17;;;7.37;;
17424;SDS011;8830;50.978;5.058;2023-04-24T08:10:01;9.67;;;7.00;;
17424;SDS011;8830;50.978;5.058;2023-04-24T08:12:29;7.23;;;6.10;;
17424;SDS011;8830;50.978;5.058;2023-04-24T08:14:59;9.50;;;6.43;;
17424;SDS011;8830;50.978;5.058;2023-04-24T08:17:26;12.37;;;6.43;;
17424;SDS011;8830;50.978;5.058;2023-04-24T08:19:53;5.90;;;5.33;;
17424;SDS011;8830;50.978;5.058;2023-04-24T08:22:26;9.20;;;5.07;;
17424;SDS011;8830;50.978;5.058;2023-04-24T08:24:54;7.30;;;5.43;;
17424;SDS011;8830;50.978;5.058;2023-04-24T08:27:23;9.43;;;4.97;;
17424;SDS011;8830;50.978;5.058;2023-04-24T08:29:50;7.40;;;4.60;;
17424;SDS011;8830;50.978;5.058;2023-04-24T08:32:18;10.90;;;4.90;;
17424;SDS011;8830;50.978;5.058;2023-04-24T08:34:46;8.37;;;4.47;;
17424;SDS011;8830;50.978;5.058;2023-04-24T08:37:13;5.30;;;3.70;;
17424;SDS011;8830;50.978;5.058;2023-04-24T08:39:40;8.23;;;4.03;;
17424;SDS011;8830;50.978;5.058;2023-04-24T08:42:07;12.13;;;4.77;;
17424;SDS011;8830;50.978;5.058;2023-04-24T08:44:35;7.07;;;3.90;;
17424;SDS011;8830;50.978;5.058;2023-04-24T08:47:03;9.13;;;4.43;;
17424;SDS011;8830;50.978;5.058;2023-04-24T08:49:32;8.83;;;4.40;;
17424;SDS011;8830;50.978;5.058;2023-04-24T08:52:00;8.17;;;4.30;;
17424;SDS011;8830;50.978;5.058;2023-04-24T08:54:28;7.10;;;3.70;;
17424;SDS011;8830;50.978;5.058;2023-04-24T08:56:57;6.67;;;4.13;;
17424;SDS011;8830;50.978;5.058;2023-04-24T08:59:26;9.00;;;4.10;;
17424;SDS011;8830;50.978;5.058;2023-04-24T09:01:54;6.40;;;4.77;;
17424;SDS011;8830;50.978;5.058;2023-04-24T09:04:23;9.83;;;5.30;;
17424;SDS011;8830;50.978;5.058;2023-04-24T09:06:55;9.60;;;4.60;;
17424;SDS011;8830;50.978;5.058;2023-04-24T09:09:23;8.63;;;4.53;;
17424;SDS011;8830;50.978;5.058;2023-04-24T09:11:51;9.37;;;4.17;;
17424;SDS011;8830;50.978;5.058;2023-04-24T09:14:24;7.87;;;4.30;;
17424;SDS011;8830;50.978;5.058;2023-04-24T09:16:53;10.17;;;5.33;;
17424;SDS011;8830;50.978;5.058;2023-04-24T09:19:20;9.90;;;4.87;;
17424;SDS011;8830;50.978;5.058;2023-04-24T09:21:49;15.40;;;6.03;;
17424;SDS011;8830;50.978;5.058;2023-04-24T09:24:20;12.50;;;5.87;;
17424;SDS011;8830;50.978;5.058;2023-04-24T09:26:48;12.50;;;6.13;;
17424;SDS011;8830;50.978;5.058;2023-04-24T09:29:23;12.63;;;6.07;;
17424;SDS011;8830;50.978;5.058;2023-04-24T09:31:51;9.80;;;4.80;;
17424;SDS011;8830;50.978;5.058;2023-04-24T09:34:20;8.70;;;4.70;;
17424;SDS011;8830;50.978;5.058;2023-04-24T09:36:49;14.40;;;6.03;;
17424;SDS011;8830;50.978;5.058;2023-04-24T09:39:17;13.87;;;5.80;;
17424;SDS011;8830;50.978;5.058;2023-04-24T09:41:46;12.30;;;6.77;;
17424;SDS011;8830;50.978;5.058;2023-04-24T09:44:15;14.73;;;7.43;;
17424;SDS011;8830;50.978;5.058;2023-04-24T09:46:45;13.07;;;6.33;;
17424;SDS011;8830;50.978;5.058;2023-04-24T09:49:21;7.67;;;5.87;;
17424;SDS011;8830;50.978;5.058;2023-04-24T09:51:50;10.47;;;5.73;;
17424;SDS011;8830;50.978;5.058;2023-04-24T09:54:18;8.87;;;4.87;;
17424;SDS011;8830;50.978;5.058;2023-04-24T09:56:48;8.83;;;4.97;;
17424;SDS011;8830;50.978;5.058;2023-04-24T09:59:16;13.70;;;5.87;;
17424;SDS011;8830;50.978;5.058;2023-04-24T10:01:44;10.50;;;5.50;;
17424;SDS011;8830;50.978;5.058;2023-04-24T10:04:16;8.63;;;5.70;;
17424;SDS011;8830;50.978;5.058;2023-04-24T10:06:45;14.50;;;5.97;;
17424;SDS011;8830;50.978;5.058;2023-04-24T10:09:14;9.90;;;6.53;;
17424;SDS011;8830;50.978;5.058;2023-04-24T10:11:43;11.83;;;6.87;;
17424;SDS011;8830;50.978;5.058;2023-04-24T10:14:12;12.27;;;7.20;;
17424;SDS011;8830;50.978;5.058;2023-04-24T10:16:40;12.97;;;7.10;;
17424;SDS011;8830;50.978;5.058;2023-04-24T10:19:08;13.63;;;6.67;;
17424;SDS011;8830;50.978;5.058;2023-04-24T10:21:38;13.67;;;7.00;;
17424;SDS011;8830;50.978;5.058;2023-04-24T10:24:11;8.20;;;6.57;;
17424;SDS011;8830;50.978;5.058;2023-04-24T10:26:40;13.60;;;7.13;;
17424;SDS011;8830;50.978;5.058;2023-04-24T10:29:09;9.23;;;6.37;;
17424;SDS011;8830;50.978;5.058;2023-04-24T10:31:37;9.83;;;6.20;;
17424;SDS011;8830;50.978;5.058;2023-04-24T10:34:05;10.93;;;6.53;;
17424;SDS011;8830;50.978;5.058;2023-04-24T10:36:35;12.77;;;7.47;;
17424;SDS011;8830;50.978;5.058;2023-04-24T10:39:06;13.17;;;7.47;;
17424;SDS011;8830;50.978;5.058;2023-04-24T10:41:37;14.30;;;8.03;;
17424;SDS011;8830;50.978;5.058;2023-04-24T10:44:04;15.40;;;7.47;;
17424;SDS011;8830;50.978;5.058;2023-04-24T10:46:33;11.10;;;6.47;;
17424;SDS011;8830;50.978;5.058;2023-04-24T10:49:03;8.57;;;5.57;;
17424;SDS011;8830;50.978;5.058;2023-04-24T10:51:44;8.57;;;5.50;;
17424;SDS011;8830;50.978;5.058;2023-04-24T10:54:21;8.63;;;4.80;;
17424;SDS011;8830;50.978;5.058;2023-04-24T10:56:49;11.47;;;4.87;;
17424;SDS011;8830;50.978;5.058;2023-04-24T10:59:23;9.13;;;5.77;;
17424;SDS011;8830;50.978;5.058;2023-04-24T11:01:53;13.67;;;6.47;;
17424;SDS011;8830;50.978;5.058;2023-04-24T11:04:31;12.53;;;6.67;;
17424;SDS011;8830;50.978;5.058;2023-04-24T11:07:00;12.07;;;6.03;;
17424;SDS011;8830;50.978;5.058;2023-04-24T11:09:29;8.57;;;5.13;;
17424;SDS011;8830;50.978;5.058;2023-04-24T11:12:03;9.07;;;5.03;;
17424;SDS011;8830;50.978;5.058;2023-04-24T11:17:31;7.40;;;4.43;;
17424;SDS011;8830;50.978;5.058;2023-04-24T11:20:02;9.00;;;3.97;;
17424;SDS011;8830;50.978;5.058;2023-04-24T11:22:33;7.20;;;3.33;;
17424;SDS011;8830;50.978;5.058;2023-04-24T11:25:01;6.53;;;3.57;;
17424;SDS011;8830;50.978;5.058;2023-04-24T11:27:38;5.47;;;3.33;;
17424;SDS011;8830;50.978;5.058;2023-04-24T11:30:07;5.37;;;3.27;;
17424;SDS011;8830;50.978;5.058;2023-04-24T11:32:38;5.97;;;3.47;;
17424;SDS011;8830;50.978;5.058;2023-04-24T11:35:07;4.07;;;3.23;;
17424;SDS011;8830;50.978;5.058;2023-04-24T11:37:40;4.83;;;3.90;;
17424;SDS011;8830;50.978;5.058;2023-04-24T11:40:11;5.07;;;3.60;;
17424;SDS011;8830;50.978;5.058;2023-04-24T11:42:41;9.20;;;3.60;;
17424;SDS011;8830;50.978;5.058;2023-04-24T11:45:10;6.50;;;3.50;;
17424;SDS011;8830;50.978;5.058;2023-04-24T11:47:39;4.47;;;2.97;;
17424;SDS011;8830;50.978;5.058;2023-04-24T11:50:07;9.93;;;3.30;;
17424;SDS011;8830;50.978;5.058;2023-04-24T11:52:37;5.80;;;2.80;;
17424;SDS011;8830;50.978;5.058;2023-04-24T11:55:06;4.77;;;2.77;;
17424;SDS011;8830;50.978;5.058;2023-04-24T11:57:35;6.87;;;3.67;;
17424;SDS011;8830;50.978;5.058;2023-04-24T12:00:02;5.87;;;3.80;;
17424;SDS011;8830;50.978;5.058;2023-04-24T12:02:31;7.47;;;3.50;;
17424;SDS011;8830;50.978;5.058;2023-04-24T12:04:59;5.97;;;3.60;;
17424;SDS011;8830;50.978;5.058;2023-04-24T12:07:27;7.13;;;3.47;;
17424;SDS011;8830;50.978;5.058;2023-04-24T12:09:57;9.03;;;3.67;;
17424;SDS011;8830;50.978;5.058;2023-04-24T12:12:26;9.27;;;3.60;;
17424;SDS011;8830;50.978;5.058;2023-04-24T12:14:54;6.67;;;3.77;;
17424;SDS011;8830;50.978;5.058;2023-04-24T12:17:26;4.07;;;3.50;;
17424;SDS011;8830;50.978;5.058;2023-04-24T12:19:57;5.73;;;2.93;;
17424;SDS011;8830;50.978;5.058;2023-04-24T12:22:27;4.57;;;3.40;;
17424;SDS011;8830;50.978;5.058;2023-04-24T12:25:00;5.17;;;3.20;;
17424;SDS011;8830;50.978;5.058;2023-04-24T12:27:29;6.90;;;3.30;;
17424;SDS011;8830;50.978;5.058;2023-04-24T12:29:58;8.27;;;4.40;;
17424;SDS011;8830;50.978;5.058;2023-04-24T12:32:26;5.90;;;3.80;;
17424;SDS011;8830;50.978;5.058;2023-04-24T12:34:54;3.93;;;2.73;;
17424;SDS011;8830;50.978;5.058;2023-04-24T12:37:23;5.17;;;3.87;;
17424;SDS011;8830;50.978;5.058;2023-04-24T12:40:02;6.73;;;3.17;;
17424;SDS011;8830;50.978;5.058;2023-04-24T12:42:32;4.33;;;3.10;;
17424;SDS011;8830;50.978;5.058;2023-04-24T12:45:00;4.60;;;3.40;;
17424;SDS011;8830;50.978;5.058;2023-04-24T12:47:29;5.67;;;3.07;;
17424;SDS011;8830;50.978;5.058;2023-04-24T12:49:57;5.07;;;2.90;;
17424;SDS011;8830;50.978;5.058;2023-04-24T12:52:25;5.47;;;3.00;;
17424;SDS011;8830;50.978;5.058;2023-04-24T12:54:54;5.83;;;3.00;;
17424;SDS011;8830;50.978;5.058;2023-04-24T12:57:24;7.77;;;3.07;;
17424;SDS011;8830;50.978;5.058;2023-04-24T12:59:53;11.80;;;4.07;;
17424;SDS011;8830;50.978;5.058;2023-04-24T13:02:21;6.93;;;3.80;;
17424;SDS011;8830;50.978;5.058;2023-04-24T13:04:48;3.70;;;3.30;;
17424;SDS011;8830;50.978;5.058;2023-04-24T13:07:16;5.97;;;3.50;;
17424;SDS011;8830;50.978;5.058;2023-04-24T13:09:43;4.67;;;3.77;;
17424;SDS011;8830;50.978;5.058;2023-04-24T13:12:11;5.20;;;3.80;;
17424;SDS011;8830;50.978;5.058;2023-04-24T13:14:40;9.00;;;3.67;;
17424;SDS011;8830;50.978;5.058;2023-04-24T13:17:07;6.67;;;3.97;;
17424;SDS011;8830;50.978;5.058;2023-04-24T13:19:38;3.37;;;3.07;;
17424;SDS011;8830;50.978;5.058;2023-04-24T13:22:06;7.30;;;4.00;;
17424;SDS011;8830;50.978;5.058;2023-04-24T13:24:34;4.47;;;3.10;;
17424;SDS011;8830;50.978;5.058;2023-04-24T13:27:02;5.80;;;3.30;;
17424;SDS011;8830;50.978;5.058;2023-04-24T13:29:30;5.00;;;3.60;;
17424;SDS011;8830;50.978;5.058;2023-04-24T13:31:58;6.10;;;2.80;;
17424;SDS011;8830;50.978;5.058;2023-04-24T13:34:28;4.37;;;2.80;;
17424;SDS011;8830;50.978;5.058;2023-04-24T13:36:56;4.00;;;2.73;;
17424;SDS011;8830;50.978;5.058;2023-04-24T13:39:24;5.63;;;2.90;;
17424;SDS011;8830;50.978;5.058;2023-04-24T13:41:52;4.50;;;3.00;;
17424;SDS011;8830;50.978;5.058;2023-04-24T13:44:20;3.47;;;2.60;;
17424;SDS011;8830;50.978;5.058;2023-04-24T13:46:48;3.87;;;2.70;;
17424;SDS011;8830;50.978;5.058;2023-04-24T13:49:20;8.33;;;2.83;;
17424;SDS011;8830;50.978;5.058;2023-04-24T13:51:49;5.30;;;3.13;;
17424;SDS011;8830;50.978;5.058;2023-04-24T13:54:17;5.50;;;2.60;;
17424;SDS011;8830;50.978;5.058;2023-04-24T13:56:45;3.53;;;2.80;;
17424;SDS011;8830;50.978;5.058;2023-04-24T13:59:12;4.27;;;2.90;;
17424;SDS011;8830;50.978;5.058;2023-04-24T14:01:39;4.47;;;3.00;;
17424;SDS011;8830;50.978;5.058;2023-04-24T14:04:06;3.10;;;2.80;;
17424;SDS011;8830;50.978;5.058;2023-04-24T14:06:35;12.07;;;3.50;;
17424;SDS011;8830;50.978;5.058;2023-04-24T14:09:02;12.37;;;3.30;;
17424;SDS011;8830;50.978;5.058;2023-04-24T14:11:30;8.63;;;3.20;;
17424;SDS011;8830;50.978;5.058;2023-04-24T14:13:57;7.10;;;3.10;;
17424;SDS011;8830;50.978;5.058;2023-04-24T14:16:24;5.10;;;3.07;;
17424;SDS011;8830;50.978;5.058;2023-04-24T14:18:51;3.93;;;2.60;;
17424;SDS011;8830;50.978;5.058;2023-04-24T14:21:19;3.47;;;2.70;;
17424;SDS011;8830;50.978;5.058;2023-04-24T14:23:47;5.83;;;2.70;;
17424;SDS011;8830;50.978;5.058;2023-04-24T14:26:14;5.40;;;2.27;;
17424;SDS011;8830;50.978;5.058;2023-04-24T14:28:41;9.63;;;2.07;;
17424;SDS011;8830;50.978;5.058;2023-04-24T14:31:08;6.63;;;2.53;;
17424;SDS011;8830;50.978;5.058;2023-04-24T14:33:36;5.83;;;2.40;;
17424;SDS011;8830;50.978;5.058;2023-04-24T14:36:03;7.73;;;2.20;;
17424;SDS011;8830;50.978;5.058;2023-04-24T14:38:30;3.87;;;1.70;;
17424;SDS011;8830;50.978;5.058;2023-04-24T14:40:59;4.13;;;2.10;;
17424;SDS011;8830;50.978;5.058;2023-04-24T14:43:26;3.47;;;1.83;;
17424;SDS011;8830;50.978;5.058;2023-04-24T14:45:53;6.23;;;2.23;;
17424;SDS011;8830;50.978;5.058;2023-04-24T14:48:20;4.03;;;2.00;;
17424;SDS011;8830;50.978;5.058;2023-04-24T14:50:49;4.13;;;2.17;;
17424;SDS011;8830;50.978;5.058;2023-04-24T14:53:16;2.40;;;2.10;;
17424;SDS011;8830;50.978;5.058;2023-04-24T14:55:43;2.20;;;1.90;;
17424;SDS011;8830;50.978;5.058;2023-04-24T14:58:12;2.60;;;2.03;;
17424;SDS011;8830;50.978;5.058;2023-04-24T15:00:39;2.87;;;2.07;;
17424;SDS011;8830;50.978;5.058;2023-04-24T15:03:06;2.33;;;1.73;;
17424;SDS011;8830;50.978;5.058;2023-04-24T15:05:34;4.10;;;2.00;;
17424;SDS011;8830;50.978;5.058;2023-04-24T15:08:02;3.20;;;1.70;;